sensor_id;sensor_type;location;lat;lon;timestamp;P1;durP1;ratioP1;P2;durP2;ratioP2
51985;SDS011;38002;53.296;6.600;2023-02-28T00:02:44;6.20;;;1.40;;
51985;SDS011;38002;53.296;6.600;2023-02-28T00:07:46;2.15;;;1.35;;
51985;SDS011;38002;53.296;6.600;2023-02-28T00:12:48;3.03;;;1.65;;
51985;SDS011;38002;53.296;6.600;2023-02-28T00:17:49;3.83;;;1.43;;
51985;SDS011;38002;53.296;6.600;2023-02-28T00:22:50;5.72;;;1.75;;
51985;SDS011;38002;53.296;6.600;2023-02-28T00:27:52;5.85;;;1.65;;
51985;SDS011;38002;53.296;6.600;2023-02-28T00:32:52;3.75;;;1.45;;
51985;SDS011;38002;53.296;6.600;2023-02-28T00:37:53;5.07;;;1.27;;
51985;SDS011;38002;53.296;6.600;2023-02-28T00:42:53;3.10;;;1.55;;
51985;SDS011;38002;53.296;6.600;2023-02-28T00:47:54;5.70;;;1.48;;
51985;SDS011;38002;53.296;6.600;2023-02-28T00:52:54;1.45;;;1.23;;
51985;SDS011;38002;53.296;6.600;2023-02-28T00:57:55;8.40;;;1.40;;
51985;SDS011;38002;53.296;6.600;2023-02-28T01:02:55;5.13;;;1.70;;
51985;SDS011;38002;53.296;6.600;2023-02-28T01:07:56;3.10;;;1.55;;
51985;SDS011;38002;53.296;6.600;2023-02-28T01:12:57;3.35;;;1.60;;
51985;SDS011;38002;53.296;6.600;2023-02-28T01:17:58;5.57;;;1.92;;
51985;SDS011;38002;53.296;6.600;2023-02-28T01:22:59;5.00;;;1.83;;
51985;SDS011;38002;53.296;6.600;2023-02-28T01:27:59;3.03;;;2.05;;
51985;SDS011;38002;53.296;6.600;2023-02-28T01:32:59;5.25;;;1.80;;
51985;SDS011;38002;53.296;6.600;2023-02-28T01:38:00;5.35;;;1.65;;
51985;SDS011;38002;53.296;6.600;2023-02-28T01:43:01;6.15;;;1.70;;
51985;SDS011;38002;53.296;6.600;2023-02-28T01:48:03;4.85;;;1.50;;
51985;SDS011;38002;53.296;6.600;2023-02-28T01:53:07;4.97;;;1.10;;
51985;SDS011;38002;53.296;6.600;2023-02-28T01:58:13;5.10;;;1.27;;
51985;SDS011;38002;53.296;6.600;2023-02-28T02:03:15;5.20;;;1.20;;
51985;SDS011;38002;53.296;6.600;2023-02-28T02:08:20;2.55;;;1.30;;
51985;SDS011;38002;53.296;6.600;2023-02-28T02:41:04;2.15;;;0.80;;
51985;SDS011;38002;53.296;6.600;2023-02-28T02:46:10;4.35;;;1.10;;
51985;SDS011;38002;53.296;6.600;2023-02-28T02:51:18;6.90;;;1.13;;
51985;SDS011;38002;53.296;6.600;2023-02-28T02:56:24;3.95;;;1.02;;
51985;SDS011;38002;53.296;6.600;2023-02-28T03:01:28;0.90;;;0.80;;
51985;SDS011;38002;53.296;6.600;2023-02-28T03:06:31;4.00;;;1.73;;
51985;SDS011;38002;53.296;6.600;2023-02-28T03:11:31;3.05;;;1.20;;
51985;SDS011;38002;53.296;6.600;2023-02-28T03:26:45;0.57;;;0.57;;
51985;SDS011;38002;53.296;6.600;2023-02-28T03:31:53;1.73;;;1.17;;
51985;SDS011;38002;53.296;6.600;2023-02-28T03:37:02;3.90;;;1.20;;
51985;SDS011;38002;53.296;6.600;2023-02-28T03:42:09;1.33;;;1.23;;
51985;SDS011;38002;53.296;6.600;2023-02-28T03:47:29;4.25;;;1.77;;
51985;SDS011;38002;53.296;6.600;2023-02-28T03:52:38;6.38;;;1.98;;
51985;SDS011;38002;53.296;6.600;2023-02-28T03:57:50;7.05;;;3.42;;
51985;SDS011;38002;53.296;6.600;2023-02-28T04:02:53;6.03;;;4.50;;
51985;SDS011;38002;53.296;6.600;2023-02-28T04:07:54;9.23;;;6.43;;
51985;SDS011;38002;53.296;6.600;2023-02-28T04:13:03;7.10;;;6.25;;
51985;SDS011;38002;53.296;6.600;2023-02-28T04:18:03;7.75;;;5.78;;
51985;SDS011;38002;53.296;6.600;2023-02-28T04:23:03;7.35;;;5.47;;
51985;SDS011;38002;53.296;6.600;2023-02-28T04:28:04;9.93;;;6.03;;
51985;SDS011;38002;53.296;6.600;2023-02-28T04:33:04;7.90;;;6.15;;
51985;SDS011;38002;53.296;6.600;2023-02-28T04:38:05;8.30;;;5.65;;
51985;SDS011;38002;53.296;6.600;2023-02-28T04:43:05;6.97;;;5.53;;
51985;SDS011;38002;53.296;6.600;2023-02-28T04:48:06;8.48;;;5.35;;
51985;SDS011;38002;53.296;6.600;2023-02-28T04:53:06;5.57;;;5.00;;
51985;SDS011;38002;53.296;6.600;2023-02-28T04:58:07;5.25;;;4.07;;
51985;SDS011;38002;53.296;6.600;2023-02-28T05:03:07;7.47;;;5.55;;
51985;SDS011;38002;53.296;6.600;2023-02-28T05:08:08;6.38;;;3.92;;
51985;SDS011;38002;53.296;6.600;2023-02-28T05:13:11;5.88;;;4.50;;
51985;SDS011;38002;53.296;6.600;2023-02-28T05:18:12;7.38;;;5.40;;
51985;SDS011;38002;53.296;6.600;2023-02-28T05:23:13;5.75;;;4.65;;
51985;SDS011;38002;53.296;6.600;2023-02-28T05:28:15;6.85;;;4.25;;
51985;SDS011;38002;53.296;6.600;2023-02-28T05:33:15;5.00;;;3.70;;
51985;SDS011;38002;53.296;6.600;2023-02-28T05:38:16;5.28;;;4.40;;
51985;SDS011;38002;53.296;6.600;2023-02-28T05:43:17;4.53;;;3.78;;
51985;SDS011;38002;53.296;6.600;2023-02-28T05:48:17;6.78;;;4.13;;
51985;SDS011;38002;53.296;6.600;2023-02-28T05:53:18;10.05;;;4.80;;
51985;SDS011;38002;53.296;6.600;2023-02-28T05:58:18;3.83;;;3.45;;
51985;SDS011;38002;53.296;6.600;2023-02-28T06:03:19;3.70;;;3.05;;
51985;SDS011;38002;53.296;6.600;2023-02-28T06:08:19;4.85;;;3.72;;
51985;SDS011;38002;53.296;6.600;2023-02-28T06:13:20;6.53;;;4.35;;
51985;SDS011;38002;53.296;6.600;2023-02-28T06:18:20;5.10;;;4.53;;
51985;SDS011;38002;53.296;6.600;2023-02-28T06:23:21;7.22;;;4.95;;
51985;SDS011;38002;53.296;6.600;2023-02-28T06:28:22;6.50;;;4.80;;
51985;SDS011;38002;53.296;6.600;2023-02-28T06:33:22;6.93;;;4.78;;
51985;SDS011;38002;53.296;6.600;2023-02-28T06:38:23;7.45;;;5.45;;
51985;SDS011;38002;53.296;6.600;2023-02-28T06:43:24;9.25;;;6.25;;
51985;SDS011;38002;53.296;6.600;2023-02-28T06:48:26;9.20;;;5.82;;
51985;SDS011;38002;53.296;6.600;2023-02-28T06:53:27;9.15;;;6.60;;
51985;SDS011;38002;53.296;6.600;2023-02-28T06:58:27;7.45;;;4.55;;
51985;SDS011;38002;53.296;6.600;2023-02-28T07:03:28;8.70;;;5.72;;
51985;SDS011;38002;53.296;6.600;2023-02-28T07:08:29;8.35;;;5.32;;
51985;SDS011;38002;53.296;6.600;2023-02-28T07:13:29;9.80;;;6.47;;
51985;SDS011;38002;53.296;6.600;2023-02-28T07:18:30;8.20;;;5.95;;
51985;SDS011;38002;53.296;6.600;2023-02-28T07:23:31;7.97;;;6.40;;
51985;SDS011;38002;53.296;6.600;2023-02-28T07:28:32;8.50;;;5.20;;
51985;SDS011;38002;53.296;6.600;2023-02-28T07:33:33;12.35;;;6.38;;
51985;SDS011;38002;53.296;6.600;2023-02-28T07:38:34;15.10;;;7.28;;
51985;SDS011;38002;53.296;6.600;2023-02-28T07:43:36;10.55;;;6.85;;
51985;SDS011;38002;53.296;6.600;2023-02-28T07:48:36;10.20;;;6.85;;
51985;SDS011;38002;53.296;6.600;2023-02-28T07:53:37;14.50;;;7.72;;
51985;SDS011;38002;53.296;6.600;2023-02-28T07:58:38;11.30;;;6.97;;
51985;SDS011;38002;53.296;6.600;2023-02-28T08:03:38;14.52;;;7.78;;
51985;SDS011;38002;53.296;6.600;2023-02-28T08:08:40;13.57;;;8.50;;
51985;SDS011;38002;53.296;6.600;2023-02-28T08:13:40;12.13;;;8.13;;
51985;SDS011;38002;53.296;6.600;2023-02-28T08:18:42;47.03;;;8.50;;
51985;SDS011;38002;53.296;6.600;2023-02-28T08:23:43;15.82;;;9.18;;
51985;SDS011;38002;53.296;6.600;2023-02-28T08:28:43;14.40;;;7.97;;
51985;SDS011;38002;53.296;6.600;2023-02-28T08:33:44;13.00;;;7.60;;
51985;SDS011;38002;53.296;6.600;2023-02-28T08:38:45;16.20;;;9.10;;
51985;SDS011;38002;53.296;6.600;2023-02-28T08:43:46;13.93;;;7.88;;
51985;SDS011;38002;53.296;6.600;2023-02-28T08:48:46;11.02;;;7.47;;
51985;SDS011;38002;53.296;6.600;2023-02-28T08:53:47;13.73;;;5.97;;
51985;SDS011;38002;53.296;6.600;2023-02-28T08:58:49;11.57;;;7.75;;
51985;SDS011;38002;53.296;6.600;2023-02-28T09:03:50;19.10;;;8.35;;
51985;SDS011;38002;53.296;6.600;2023-02-28T09:08:51;14.25;;;7.32;;
51985;SDS011;38002;53.296;6.600;2023-02-28T09:13:52;9.55;;;7.43;;
51985;SDS011;38002;53.296;6.600;2023-02-28T09:18:55;12.02;;;7.57;;
51985;SDS011;38002;53.296;6.600;2023-02-28T09:23:55;12.93;;;7.20;;
51985;SDS011;38002;53.296;6.600;2023-02-28T09:28:56;12.77;;;7.63;;
51985;SDS011;38002;53.296;6.600;2023-02-28T09:33:58;11.43;;;7.40;;
51985;SDS011;38002;53.296;6.600;2023-02-28T09:38:59;14.85;;;8.40;;
51985;SDS011;38002;53.296;6.600;2023-02-28T09:44:00;12.93;;;8.15;;
51985;SDS011;38002;53.296;6.600;2023-02-28T09:49:05;12.43;;;8.07;;
51985;SDS011;38002;53.296;6.600;2023-02-28T09:54:13;14.75;;;8.07;;
51985;SDS011;38002;53.296;6.600;2023-02-28T10:09:41;10.15;;;6.75;;
51985;SDS011;38002;53.296;6.600;2023-02-28T10:14:43;9.05;;;6.00;;
51985;SDS011;38002;53.296;6.600;2023-02-28T10:19:52;8.63;;;6.07;;
51985;SDS011;38002;53.296;6.600;2023-02-28T10:24:55;13.43;;;6.63;;
51985;SDS011;38002;53.296;6.600;2023-02-28T10:30:00;9.15;;;6.40;;
51985;SDS011;38002;53.296;6.600;2023-02-28T10:40:32;7.70;;;5.35;;
51985;SDS011;38002;53.296;6.600;2023-02-28T10:45:35;9.85;;;6.28;;
51985;SDS011;38002;53.296;6.600;2023-02-28T10:50:44;15.35;;;6.82;;
51985;SDS011;38002;53.296;6.600;2023-02-28T11:01:03;9.52;;;5.75;;
51985;SDS011;38002;53.296;6.600;2023-02-28T11:06:05;14.55;;;6.82;;
51985;SDS011;38002;53.296;6.600;2023-02-28T11:11:08;13.10;;;5.93;;
51985;SDS011;38002;53.296;6.600;2023-02-28T11:16:09;9.20;;;6.50;;
51985;SDS011;38002;53.296;6.600;2023-02-28T11:21:16;10.43;;;5.68;;
51985;SDS011;38002;53.296;6.600;2023-02-28T11:37:19;10.88;;;7.38;;
51985;SDS011;38002;53.296;6.600;2023-02-28T11:42:32;11.27;;;6.55;;
51985;SDS011;38002;53.296;6.600;2023-02-28T11:47:44;8.93;;;4.50;;
51985;SDS011;38002;53.296;6.600;2023-02-28T12:30:37;8.82;;;5.38;;
51985;SDS011;38002;53.296;6.600;2023-02-28T12:35:53;6.07;;;5.18;;
51985;SDS011;38002;53.296;6.600;2023-02-28T12:41:16;6.82;;;5.18;;
51985;SDS011;38002;53.296;6.600;2023-02-28T12:46:23;7.47;;;4.85;;
51985;SDS011;38002;53.296;6.600;2023-02-28T12:51:32;6.60;;;5.28;;
51985;SDS011;38002;53.296;6.600;2023-02-28T13:02:18;5.47;;;4.97;;
51985;SDS011;38002;53.296;6.600;2023-02-28T13:12:55;5.28;;;3.72;;
51985;SDS011;38002;53.296;6.600;2023-02-28T13:17:57;8.30;;;5.63;;
51985;SDS011;38002;53.296;6.600;2023-02-28T13:22:59;6.70;;;5.38;;
51985;SDS011;38002;53.296;6.600;2023-02-28T13:38:24;9.05;;;5.43;;
51985;SDS011;38002;53.296;6.600;2023-02-28T13:59:38;6.22;;;5.05;;
51985;SDS011;38002;53.296;6.600;2023-02-28T14:10:18;8.32;;;5.63;;
51985;SDS011;38002;53.296;6.600;2023-02-28T14:21:14;6.38;;;5.03;;
51985;SDS011;38002;53.296;6.600;2023-02-28T14:31:35;6.28;;;5.00;;
51985;SDS011;38002;53.296;6.600;2023-02-28T14:36:43;6.57;;;5.57;;
51985;SDS011;38002;53.296;6.600;2023-02-28T14:41:45;6.65;;;5.43;;
51985;SDS011;38002;53.296;6.600;2023-02-28T14:46:48;7.20;;;6.45;;
51985;SDS011;38002;53.296;6.600;2023-02-28T14:52:01;6.85;;;6.15;;
51985;SDS011;38002;53.296;6.600;2023-02-28T14:57:02;7.07;;;5.60;;
51985;SDS011;38002;53.296;6.600;2023-02-28T15:02:16;8.68;;;5.97;;
51985;SDS011;38002;53.296;6.600;2023-02-28T15:07:17;7.47;;;6.07;;
51985;SDS011;38002;53.296;6.600;2023-02-28T15:12:17;6.82;;;5.90;;
51985;SDS011;38002;53.296;6.600;2023-02-28T15:17:20;5.85;;;5.28;;
51985;SDS011;38002;53.296;6.600;2023-02-28T15:22:29;5.75;;;4.53;;
51985;SDS011;38002;53.296;6.600;2023-02-28T15:27:38;5.67;;;5.10;;
51985;SDS011;38002;53.296;6.600;2023-02-28T15:32:46;6.50;;;3.65;;
51985;SDS011;38002;53.296;6.600;2023-02-28T15:38:04;5.38;;;4.88;;
51985;SDS011;38002;53.296;6.600;2023-02-28T15:43:17;5.45;;;4.35;;
51985;SDS011;38002;53.296;6.600;2023-02-28T15:53:51;6.70;;;4.88;;
51985;SDS011;38002;53.296;6.600;2023-02-28T15:58:56;8.50;;;5.22;;
51985;SDS011;38002;53.296;6.600;2023-02-28T16:04:01;5.13;;;4.22;;
51985;SDS011;38002;53.296;6.600;2023-02-28T16:09:05;8.20;;;5.07;;
51985;SDS011;38002;53.296;6.600;2023-02-28T16:14:11;7.93;;;5.43;;
51985;SDS011;38002;53.296;6.600;2023-02-28T16:19:14;8.73;;;6.85;;
51985;SDS011;38002;53.296;6.600;2023-02-28T16:24:15;8.98;;;6.25;;
51985;SDS011;38002;53.296;6.600;2023-02-28T16:29:18;18.00;;;6.97;;
51985;SDS011;38002;53.296;6.600;2023-02-28T16:34:24;9.07;;;6.45;;
51985;SDS011;38002;53.296;6.600;2023-02-28T16:39:25;9.55;;;6.47;;
51985;SDS011;38002;53.296;6.600;2023-02-28T16:49:35;7.68;;;6.35;;
51985;SDS011;38002;53.296;6.600;2023-02-28T16:54:35;9.15;;;6.20;;
51985;SDS011;38002;53.296;6.600;2023-02-28T16:59:36;8.15;;;6.10;;
51985;SDS011;38002;53.296;6.600;2023-02-28T17:04:36;11.65;;;7.25;;
51985;SDS011;38002;53.296;6.600;2023-02-28T17:09:37;11.18;;;7.75;;
51985;SDS011;38002;53.296;6.600;2023-02-28T17:14:37;14.63;;;7.80;;
51985;SDS011;38002;53.296;6.600;2023-02-28T17:19:38;9.15;;;7.20;;
51985;SDS011;38002;53.296;6.600;2023-02-28T17:24:43;9.40;;;6.82;;
51985;SDS011;38002;53.296;6.600;2023-02-28T17:29:45;11.07;;;7.20;;
51985;SDS011;38002;53.296;6.600;2023-02-28T17:34:45;7.50;;;6.70;;
51985;SDS011;38002;53.296;6.600;2023-02-28T17:39:46;8.93;;;7.75;;
51985;SDS011;38002;53.296;6.600;2023-02-28T17:44:46;8.13;;;6.63;;
51985;SDS011;38002;53.296;6.600;2023-02-28T17:49:47;9.68;;;7.03;;
51985;SDS011;38002;53.296;6.600;2023-02-28T17:54:47;9.70;;;7.18;;
51985;SDS011;38002;53.296;6.600;2023-02-28T17:59:48;9.82;;;7.03;;
51985;SDS011;38002;53.296;6.600;2023-02-28T18:04:48;11.70;;;6.88;;
51985;SDS011;38002;53.296;6.600;2023-02-28T18:09:49;13.57;;;7.88;;
51985;SDS011;38002;53.296;6.600;2023-02-28T18:14:49;11.77;;;8.18;;
51985;SDS011;38002;53.296;6.600;2023-02-28T18:19:50;8.88;;;7.30;;
51985;SDS011;38002;53.296;6.600;2023-02-28T18:24:50;13.15;;;8.25;;
51985;SDS011;38002;53.296;6.600;2023-02-28T18:29:51;8.57;;;6.97;;
51985;SDS011;38002;53.296;6.600;2023-02-28T18:34:51;10.20;;;7.60;;
51985;SDS011;38002;53.296;6.600;2023-02-28T18:39:52;10.77;;;8.45;;
51985;SDS011;38002;53.296;6.600;2023-02-28T18:44:53;9.35;;;7.00;;
51985;SDS011;38002;53.296;6.600;2023-02-28T18:49:53;8.02;;;7.00;;
51985;SDS011;38002;53.296;6.600;2023-02-28T18:54:54;10.45;;;7.72;;
51985;SDS011;38002;53.296;6.600;2023-02-28T18:59:54;10.18;;;7.53;;
51985;SDS011;38002;53.296;6.600;2023-02-28T19:04:54;15.18;;;8.55;;
51985;SDS011;38002;53.296;6.600;2023-02-28T19:09:55;11.20;;;7.20;;
51985;SDS011;38002;53.296;6.600;2023-02-28T19:14:56;12.75;;;7.63;;
51985;SDS011;38002;53.296;6.600;2023-02-28T19:19:56;12.55;;;8.55;;
51985;SDS011;38002;53.296;6.600;2023-02-28T19:24:57;11.38;;;7.78;;
51985;SDS011;38002;53.296;6.600;2023-02-28T19:29:58;8.73;;;6.50;;
51985;SDS011;38002;53.296;6.600;2023-02-28T19:34:58;13.85;;;8.00;;
51985;SDS011;38002;53.296;6.600;2023-02-28T19:39:59;10.52;;;7.75;;
51985;SDS011;38002;53.296;6.600;2023-02-28T19:45:00;10.68;;;9.27;;
51985;SDS011;38002;53.296;6.600;2023-02-28T19:50:01;17.90;;;10.73;;
51985;SDS011;38002;53.296;6.600;2023-02-28T19:55:01;15.40;;;8.68;;
51985;SDS011;38002;53.296;6.600;2023-02-28T20:00:02;16.23;;;11.82;;
51985;SDS011;38002;53.296;6.600;2023-02-28T20:05:03;22.77;;;12.30;;
51985;SDS011;38002;53.296;6.600;2023-02-28T20:10:04;16.85;;;10.77;;
51985;SDS011;38002;53.296;6.600;2023-02-28T20:15:05;12.63;;;8.55;;
51985;SDS011;38002;53.296;6.600;2023-02-28T20:20:06;11.40;;;8.13;;
51985;SDS011;38002;53.296;6.600;2023-02-28T20:25:10;15.20;;;8.85;;
51985;SDS011;38002;53.296;6.600;2023-02-28T20:30:11;10.60;;;7.90;;
51985;SDS011;38002;53.296;6.600;2023-02-28T20:35:11;11.95;;;7.63;;
51985;SDS011;38002;53.296;6.600;2023-02-28T20:40:12;8.52;;;6.55;;
51985;SDS011;38002;53.296;6.600;2023-02-28T20:45:13;9.23;;;6.63;;
51985;SDS011;38002;53.296;6.600;2023-02-28T20:50:13;11.63;;;7.53;;
51985;SDS011;38002;53.296;6.600;2023-02-28T21:00:16;10.13;;;6.10;;
51985;SDS011;38002;53.296;6.600;2023-02-28T21:05:19;11.27;;;7.10;;
51985;SDS011;38002;53.296;6.600;2023-02-28T21:10:20;9.50;;;5.97;;
51985;SDS011;38002;53.296;6.600;2023-02-28T21:15:20;8.85;;;6.47;;
51985;SDS011;38002;53.296;6.600;2023-02-28T21:20:21;7.55;;;6.60;;
51985;SDS011;38002;53.296;6.600;2023-02-28T21:25:22;9.65;;;6.00;;
51985;SDS011;38002;53.296;6.600;2023-02-28T21:30:22;12.70;;;6.93;;
51985;SDS011;38002;53.296;6.600;2023-02-28T21:35:23;7.75;;;5.85;;
51985;SDS011;38002;53.296;6.600;2023-02-28T21:40:24;9.20;;;7.00;;
51985;SDS011;38002;53.296;6.600;2023-02-28T21:45:24;9.52;;;7.20;;
51985;SDS011;38002;53.296;6.600;2023-02-28T21:50:26;11.32;;;7.82;;
51985;SDS011;38002;53.296;6.600;2023-02-28T21:55:26;8.20;;;6.45;;
51985;SDS011;38002;53.296;6.600;2023-02-28T22:00:27;10.13;;;6.97;;
51985;SDS011;38002;53.296;6.600;2023-02-28T22:05:28;10.75;;;6.80;;
51985;SDS011;38002;53.296;6.600;2023-02-28T22:10:29;10.57;;;6.85;;
51985;SDS011;38002;53.296;6.600;2023-02-28T22:15:29;11.00;;;7.40;;
51985;SDS011;38002;53.296;6.600;2023-02-28T22:20:31;9.27;;;7.32;;
51985;SDS011;38002;53.296;6.600;2023-02-28T22:25:35;11.50;;;7.50;;
51985;SDS011;38002;53.296;6.600;2023-02-28T22:30:36;12.27;;;8.80;;
51985;SDS011;38002;53.296;6.600;2023-02-28T22:35:36;14.48;;;9.85;;
51985;SDS011;38002;53.296;6.600;2023-02-28T22:40:37;17.33;;;9.88;;
51985;SDS011;38002;53.296;6.600;2023-02-28T22:45:38;15.20;;;9.13;;
51985;SDS011;38002;53.296;6.600;2023-02-28T22:50:39;20.45;;;9.77;;
51985;SDS011;38002;53.296;6.600;2023-02-28T22:55:40;12.70;;;8.48;;
51985;SDS011;38002;53.296;6.600;2023-02-28T23:00:40;14.18;;;9.13;;
51985;SDS011;38002;53.296;6.600;2023-02-28T23:05:41;12.68;;;7.75;;
51985;SDS011;38002;53.296;6.600;2023-02-28T23:10:41;14.38;;;8.23;;
51985;SDS011;38002;53.296;6.600;2023-02-28T23:15:42;9.90;;;7.57;;
51985;SDS011;38002;53.296;6.600;2023-02-28T23:20:42;14.68;;;8.27;;
51985;SDS011;38002;53.296;6.600;2023-02-28T23:25:43;9.05;;;7.50;;
51985;SDS011;38002;53.296;6.600;2023-02-28T23:30:44;7.95;;;5.90;;
51985;SDS011;38002;53.296;6.600;2023-02-28T23:35:45;7.95;;;6.30;;
51985;SDS011;38002;53.296;6.600;2023-02-28T23:40:45;8.65;;;5.95;;
51985;SDS011;38002;53.296;6.600;2023-02-28T23:45:53;6.20;;;5.22;;
51985;SDS011;38002;53.296;6.600;2023-02-28T23:50:58;6.72;;;5.47;;
51985;SDS011;38002;53.296;6.600;2023-02-28T23:56:00;7.85;;;5.80;;
